METAR Data
IDs: Format: Raw Decoded Include TAF

Data at: 1543 UTC 18 Aug 2019

PANI 181456Z AUTO VRB03KT 10SM CLR 09/05 A3037 RMK AO2 SLP285 T00890050 58010
PANI 181356Z AUTO VRB03KT 10SM CLR 10/06 A3038 RMK AO2 SLP289 T01000056
PANI 181256Z AUTO VRB05KT 10SM CLR 09/06 A3039 RMK AO2 SLP293 T00940056
PANI 181156Z AUTO 01007KT 10SM CLR 10/06 A3040 RMK AO2 SLP295 T01000056 10156 20100 56006
PANI 181056Z AUTO 00000KT 10SM CLR 11/06 A3040 RMK AO2 SLP297 T01060061
PANI 180956Z AUTO 00000KT 10SM CLR 11/06 A3041 RMK AO2 SLP298 T01110061
PANI 180856Z AUTO 35006KT 10SM CLR 12/07 A3041 RMK AO2 SLP301 T01220067 401830078 58004
PANI 180756Z AUTO 36007KT 10SM CLR 14/06 A3042 RMK AO2 SLP304 T01390061
PANI 180656Z AUTO 02007KT 10SM CLR 14/07 A3043 RMK AO2 SLP307 T01440067
PANI 180556Z AUTO 01009G17KT 10SM CLR 16/07 A3043 RMK AO2 SLP306 T01560072 10183 20156 58002
PANI 180456Z AUTO 36009KT 10SM CLR 17/08 A3043 RMK AO2 SLP306 T01670078
PANI 180356Z AUTO 35008KT 10SM CLR 18/08 A3043 RMK AO2 SLP308 T01780078
PANI 180256Z AUTO 01009G18KT 10SM CLR 18/08 A3043 RMK AO2 SLP308 T01830083 56011
PANI 180156Z AUTO 34013G19KT 10SM CLR 18/08 A3044 RMK AO2 SLP309 T01830083
PANI 180056Z AUTO 35008KT 6SM HZ CLR 18/09 A3045 RMK AO2 SLP314 T01780089
PANI 172356Z AUTO 36010G15KT 9SM CLR 16/07 A3047 RMK AO2 SLP319 T01610072 10161 20100 58014
PANI 172256Z AUTO 36008G17KT 310V030 10SM CLR 15/07 A3049 RMK AO2 SLP326 T01500067
PANI 172156Z AUTO VRB06KT 10SM FEW033 14/07 A3050 RMK AO2 SLP331 T01440072
PANI 172056Z AUTO 04006KT 9SM FEW029 13/07 A3051 RMK AO2 SLP333 T01330072 53002
PANI 172014Z AUTO 04007KT 010V080 10SM SCT025 13/08 A3050 RMK AO2
PANI 172007Z AUTO VRB06KT 9SM BKN025 13/08 A3050 RMK AO2
PANI 171956Z AUTO 34010G14KT 9SM SCT025 13/08 A3050 RMK AO2 SLP331 T01280078
PANI 171949Z AUTO 36006KT 10SM BKN025 13/07 A3050 RMK AO2
PANI 171856Z AUTO 02008G15KT 350V060 10SM CLR 12/06 A3050 RMK AO2 SLP332 T01220061
PANI 171756Z AUTO VRB06KT 10SM CLR 10/07 A3050 RMK AO2 SLP331 T01000072 10117 20078 53005
PANI 171656Z AUTO VRB06KT 10SM CLR 09/07 A3049 RMK AO2 SLP327 T00940067
PANI 171556Z AUTO VRB03KT 10SM CLR 09/07 A3049 RMK AO2 SLP328 T00890067
PANI 171456Z AUTO VRB04KT 10SM CLR 09/07 A3049 RMK AO2 SLP326 T00940067 52007
PANI 171356Z AUTO 32007KT 10SM CLR 09/08 A3048 RMK AO2 SLP323 T00940078
PANI 171256Z AUTO 34010KT 10SM CLR 11/09 A3047 RMK AO2 SLP322 T01060089
PANI 171156Z AUTO 34007KT 10SM FEW100 BKN120 12/09 A3047 RMK AO2 SLP319 60001 70006 T01170094 10144 20117 53005
PANI 171056Z AUTO 34010KT 10SM OVC100 12/09 A3046 RMK AO2 SLP315 T01220094
PANI 170956Z AUTO VRB04KT 10SM FEW007 OVC100 13/11 A3046 RMK AO2 SLP316 T01280106
PANI 170944Z AUTO 35004KT 10SM SCT007 OVC100 13/11 A3046 RMK AO2
PANI 170931Z AUTO 35004KT 10SM BKN007 OVC100 13/12 A3046 RMK AO2 CIG 005V011
PANI 170921Z AUTO 35008KT 320V030 10SM SCT007 OVC100 14/13 A3045 RMK AO2
PANI 170856Z AUTO 34006KT 10SM OVC100 14/13 A3045 RMK AO2 SLP313 P0001 60001 T01390128 401500128 51004
PANI 170827Z AUTO 34005KT 10SM FEW017 BKN041 OVC090 14/13 A3045 RMK AO2 P0001
PANI 170820Z AUTO 33004KT 10SM SCT015 BKN024 OVC090 14/13 A3045 RMK AO2 P0001
PANI 170756Z AUTO 32004KT 10SM OVC013 14/13 A3044 RMK AO2 SLP311 T01440133
PANI 170752Z AUTO 32004KT 10SM OVC013 14/13 A3045 RMK AO2
PANI 170738Z AUTO 29003KT 10SM FEW004 OVC015 14/14 A3044 RMK AO2
PANI 170731Z AUTO 30003KT 10SM SCT004 BKN009 OVC015 14/14 A3044 RMK AO2
PANI 170656Z AUTO 30003KT 3SM BR OVC004 14/14 A3044 RMK AO2 RAE07 SLP309 P0000 T01440139
PANI 170645Z AUTO 00000KT 3SM BR BKN004 OVC009 14/14 A3044 RMK AO2 RAE07 P0000
PANI 170629Z AUTO 00000KT 1 3/4SM BR BKN004 BKN010 OVC013 14/14 A3044 RMK AO2 RAE07 CIG 003V008 P0000
PANI 170615Z AUTO 26003KT 2 1/2SM BR SCT004 OVC013 14/14 A3044 RMK AO2 RAE07 P0000
PANI 170556Z AUTO 26004KT 3SM -RA BR BKN009 BKN014 OVC020 14/14 A3043 RMK AO2 CIG 006V011 SLP308 P0001 60005 T01440139 10150 20139 58005
PANI 170548Z AUTO 27003KT 3SM -RA BR BKN009 BKN016 OVC022 14/14 A3044 RMK AO2 CIG 008V012 P0001
PANI 170538Z AUTO 27005KT 2 1/2SM -RA BR FEW007 BKN020 OVC027 14/14 A3044 RMK AO2 VIS 2V3 P0001
PANI 170527Z AUTO 27006KT 2SM -RA BR SCT004 BKN014 OVC027 14/14 A3044 RMK AO2 P0001
PANI 170515Z AUTO 26005KT 2 1/2SM -RA BR BKN004 OVC027 14/14 A3044 RMK AO2 P0000
PANI 170508Z AUTO 26006KT 3SM -RA BR OVC004 14/14 A3044 RMK AO2 P0000
PANI 170456Z AUTO 27005KT 3SM -RA BR BKN006 OVC036 14/14 A3044 RMK AO2 RAE0359B48 CIG 003V008 SLP311 P0000 T01440139
PANI 170452Z AUTO 27005KT 2 1/2SM -RA BR BKN006 OVC029 14/14 A3044 RMK AO2 RAE0359B48 CIG 003V008 P0000
PANI 170440Z AUTO 27005KT 3SM BR BKN006 BKN029 OVC038 14/14 A3044 RMK AO2 RAE0359 CIG 004V010 P0000
PANI 170356Z AUTO 26003KT 3SM -RA BR BKN004 OVC011 14/14 A3045 RMK AO2 CIG 003V008 SLP313 P0002 T01440139
PANI 170348Z AUTO 25005KT 2SM -RA BR BKN006 OVC013 14/14 A3045 RMK AO2 CIG 003V009 P0002